sensor_id;sensor_type;location;lat;lon;timestamp;pressure;altitude;pressure_sealevel;temperature;humidity
75594;BME280;64176;49.156;7.810;2022-10-16T00:00:58;98928.56;;;15.31;92.62
75594;BME280;64176;49.156;7.810;2022-10-16T00:03:48;98933.84;;;15.28;92.78
75594;BME280;64176;49.156;7.810;2022-10-16T00:06:36;98938.13;;;15.30;92.67
75594;BME280;64176;49.156;7.810;2022-10-16T00:09:25;98943.34;;;15.30;92.80
75594;BME280;64176;49.156;7.810;2022-10-16T00:12:09;98954.75;;;15.23;92.81
75594;BME280;64176;49.156;7.810;2022-10-16T00:14:53;98938.31;;;15.21;93.12
75594;BME280;64176;49.156;7.810;2022-10-16T00:17:37;98934.00;;;15.19;93.36
75594;BME280;64176;49.156;7.810;2022-10-16T00:20:22;98953.09;;;15.19;93.18
75594;BME280;64176;49.156;7.810;2022-10-16T00:23:05;98953.94;;;15.20;93.54
75594;BME280;64176;49.156;7.810;2022-10-16T00:25:57;98946.19;;;15.17;93.67
75594;BME280;64176;49.156;7.810;2022-10-16T00:28:41;98958.38;;;15.15;93.78
75594;BME280;64176;49.156;7.810;2022-10-16T00:31:26;98955.66;;;15.22;92.77
75594;BME280;64176;49.156;7.810;2022-10-16T00:34:10;98943.38;;;15.27;91.88
75594;BME280;64176;49.156;7.810;2022-10-16T00:36:54;98941.63;;;15.29;91.65
75594;BME280;64176;49.156;7.810;2022-10-16T00:39:39;98952.03;;;15.29;91.62
75594;BME280;64176;49.156;7.810;2022-10-16T00:42:22;98956.47;;;15.24;92.29
75594;BME280;64176;49.156;7.810;2022-10-16T00:45:09;98953.09;;;15.19;92.88
75594;BME280;64176;49.156;7.810;2022-10-16T00:47:55;98948.72;;;15.21;92.46
75594;BME280;64176;49.156;7.810;2022-10-16T00:50:42;98959.13;;;15.21;92.76
75594;BME280;64176;49.156;7.810;2022-10-16T00:53:28;98944.50;;;15.14;92.53
75594;BME280;64176;49.156;7.810;2022-10-16T00:56:12;98944.41;;;15.20;92.52
75594;BME280;64176;49.156;7.810;2022-10-16T00:58:58;98943.53;;;15.21;92.71
75594;BME280;64176;49.156;7.810;2022-10-16T01:01:43;98953.03;;;15.22;92.68
75594;BME280;64176;49.156;7.810;2022-10-16T01:04:32;98953.13;;;15.18;92.60
75594;BME280;64176;49.156;7.810;2022-10-16T01:10:40;98951.38;;;15.18;92.84
75594;BME280;64176;49.156;7.810;2022-10-16T01:13:34;98963.50;;;15.19;93.02
75594;BME280;64176;49.156;7.810;2022-10-16T01:16:59;98957.47;;;15.16;92.86
75594;BME280;64176;49.156;7.810;2022-10-16T01:25:37;98968.81;;;15.13;93.28
75594;BME280;64176;49.156;7.810;2022-10-16T01:28:37;98961.06;;;15.10;93.49
75594;BME280;64176;49.156;7.810;2022-10-16T01:31:29;98960.09;;;15.16;93.07
75594;BME280;64176;49.156;7.810;2022-10-16T01:34:18;98947.97;;;15.15;92.89
75594;BME280;64176;49.156;7.810;2022-10-16T01:37:18;98951.53;;;15.09;93.11
75594;BME280;64176;49.156;7.810;2022-10-16T01:40:07;98955.00;;;15.10;93.21
75594;BME280;64176;49.156;7.810;2022-10-16T01:42:58;98964.56;;;15.09;93.25
75594;BME280;64176;49.156;7.810;2022-10-16T01:45:44;98958.44;;;15.12;93.26
75594;BME280;64176;49.156;7.810;2022-10-16T01:48:29;98960.22;;;15.10;93.10
75594;BME280;64176;49.156;7.810;2022-10-16T01:51:21;98955.19;;;14.99;93.63
75594;BME280;64176;49.156;7.810;2022-10-16T01:54:08;98978.50;;;15.05;92.99
75594;BME280;64176;49.156;7.810;2022-10-16T01:56:53;98968.94;;;15.07;93.41
75594;BME280;64176;49.156;7.810;2022-10-16T01:59:47;98960.38;;;15.01;93.52
75594;BME280;64176;49.156;7.810;2022-10-16T02:02:33;98955.16;;;15.02;93.70
75594;BME280;64176;49.156;7.810;2022-10-16T02:05:28;98966.38;;;15.03;93.44
75594;BME280;64176;49.156;7.810;2022-10-16T02:08:15;98961.25;;;15.00;93.78
75594;BME280;64176;49.156;7.810;2022-10-16T02:10:59;98957.75;;;15.02;93.36
75594;BME280;64176;49.156;7.810;2022-10-16T02:13:53;98958.56;;;15.04;93.63
75594;BME280;64176;49.156;7.810;2022-10-16T02:16:42;98959.50;;;15.00;93.56
75594;BME280;64176;49.156;7.810;2022-10-16T02:19:29;98956.91;;;15.00;93.91
75594;BME280;64176;49.156;7.810;2022-10-16T02:22:59;98963.91;;;14.97;93.74
75594;BME280;64176;49.156;7.810;2022-10-16T02:25:31;98966.50;;;14.97;93.57
75594;BME280;64176;49.156;7.810;2022-10-16T02:28:26;98967.47;;;14.91;93.95
75594;BME280;64176;49.156;7.810;2022-10-16T02:31:16;98973.44;;;14.96;93.93
75594;BME280;64176;49.156;7.810;2022-10-16T02:34:03;98972.63;;;14.92;93.68
75594;BME280;64176;49.156;7.810;2022-10-16T02:36:50;98980.53;;;14.88;94.33
75594;BME280;64176;49.156;7.810;2022-10-16T02:39:34;98978.84;;;14.85;94.05
75594;BME280;64176;49.156;7.810;2022-10-16T02:42:19;98990.81;;;14.94;93.97
75594;BME280;64176;49.156;7.810;2022-10-16T02:45:04;98991.72;;;14.93;94.11
75594;BME280;64176;49.156;7.810;2022-10-16T02:47:49;99000.34;;;14.95;93.58
75594;BME280;64176;49.156;7.810;2022-10-16T02:50:32;98991.78;;;14.90;93.96
75594;BME280;64176;49.156;7.810;2022-10-16T02:53:19;98988.25;;;14.92;93.80
75594;BME280;64176;49.156;7.810;2022-10-16T02:56:03;98976.97;;;14.93;94.01
75594;BME280;64176;49.156;7.810;2022-10-16T02:58:48;98987.34;;;14.95;93.80
75594;BME280;64176;49.156;7.810;2022-10-16T03:01:32;98980.41;;;14.96;93.88
75594;BME280;64176;49.156;7.810;2022-10-16T03:04:16;98973.47;;;14.94;93.89
75594;BME280;64176;49.156;7.810;2022-10-16T03:07:01;98986.47;;;14.94;94.03
75594;BME280;64176;49.156;7.810;2022-10-16T03:09:45;98988.31;;;14.89;93.84
75594;BME280;64176;49.156;7.810;2022-10-16T03:12:31;98986.63;;;14.87;94.03
75594;BME280;64176;49.156;7.810;2022-10-16T03:15:15;98991.00;;;14.83;94.14
75594;BME280;64176;49.156;7.810;2022-10-16T03:17:59;98981.47;;;14.84;94.32
75594;BME280;64176;49.156;7.810;2022-10-16T03:20:44;98988.25;;;14.92;93.91
75594;BME280;64176;49.156;7.810;2022-10-16T03:23:28;98987.50;;;14.86;94.03
75594;BME280;64176;49.156;7.810;2022-10-16T03:26:12;98999.59;;;14.90;93.89
75594;BME280;64176;49.156;7.810;2022-10-16T03:28:56;98979.63;;;14.90;93.77
75594;BME280;64176;49.156;7.810;2022-10-16T03:31:40;98982.28;;;14.87;93.88
75594;BME280;64176;49.156;7.810;2022-10-16T03:34:24;98983.16;;;14.86;94.21
75594;BME280;64176;49.156;7.810;2022-10-16T03:37:09;98990.09;;;14.86;94.07
75594;BME280;64176;49.156;7.810;2022-10-16T03:39:53;98979.81;;;14.80;94.06
75594;BME280;64176;49.156;7.810;2022-10-16T03:42:37;98982.28;;;14.86;93.78
75594;BME280;64176;49.156;7.810;2022-10-16T03:45:20;98986.69;;;14.82;94.23
75594;BME280;64176;49.156;7.810;2022-10-16T03:48:04;98987.53;;;14.84;94.04
75594;BME280;64176;49.156;7.810;2022-10-16T03:50:48;98985.78;;;14.83;93.96
75594;BME280;64176;49.156;7.810;2022-10-16T03:53:34;98984.16;;;14.79;94.02
75594;BME280;64176;49.156;7.810;2022-10-16T03:56:18;98993.72;;;14.77;94.03
75594;BME280;64176;49.156;7.810;2022-10-16T03:59:04;98998.09;;;14.74;94.15
75594;BME280;64176;49.156;7.810;2022-10-16T04:01:48;99004.13;;;14.76;94.38
75594;BME280;64176;49.156;7.810;2022-10-16T04:04:34;98997.22;;;14.75;93.75
75594;BME280;64176;49.156;7.810;2022-10-16T04:07:19;99000.69;;;14.74;94.01
75594;BME280;64176;49.156;7.810;2022-10-16T04:10:03;99009.41;;;14.70;94.03
75594;BME280;64176;49.156;7.810;2022-10-16T04:12:48;98999.00;;;14.71;94.09
75594;BME280;64176;49.156;7.810;2022-10-16T04:15:32;98993.78;;;14.73;93.89
75594;BME280;64176;49.156;7.810;2022-10-16T04:18:16;99011.13;;;14.72;93.88
75594;BME280;64176;49.156;7.810;2022-10-16T04:21:04;99001.56;;;14.73;94.29
75594;BME280;64176;49.156;7.810;2022-10-16T04:23:48;99008.63;;;14.66;94.17
75594;BME280;64176;49.156;7.810;2022-10-16T04:26:33;99006.88;;;14.68;93.96
75594;BME280;64176;49.156;7.810;2022-10-16T04:29:17;99013.81;;;14.68;94.05
75594;BME280;64176;49.156;7.810;2022-10-16T04:32:01;99019.91;;;14.67;94.00
75594;BME280;64176;49.156;7.810;2022-10-16T04:34:44;99025.06;;;14.68;93.89
75594;BME280;64176;49.156;7.810;2022-10-16T04:37:28;99012.94;;;14.69;94.02
75594;BME280;64176;49.156;7.810;2022-10-16T04:40:13;98997.41;;;14.61;94.24
75594;BME280;64176;49.156;7.810;2022-10-16T04:42:57;99019.97;;;14.61;94.60
75594;BME280;64176;49.156;7.810;2022-10-16T04:45:42;99017.34;;;14.62;94.28
75594;BME280;64176;49.156;7.810;2022-10-16T04:48:26;99009.50;;;14.65;94.16
75594;BME280;64176;49.156;7.810;2022-10-16T04:51:10;99013.16;;;14.53;93.93
75594;BME280;64176;49.156;7.810;2022-10-16T04:53:54;99004.53;;;14.48;94.24
75594;BME280;64176;49.156;7.810;2022-10-16T04:56:39;99019.97;;;14.59;94.30
75594;BME280;64176;49.156;7.810;2022-10-16T04:59:34;99018.31;;;14.55;94.40
75594;BME280;64176;49.156;7.810;2022-10-16T05:02:20;99014.88;;;14.54;94.19
75594;BME280;64176;49.156;7.810;2022-10-16T05:05:07;99018.31;;;14.55;94.18
75594;BME280;64176;49.156;7.810;2022-10-16T05:07:51;99024.44;;;14.52;94.30
75594;BME280;64176;49.156;7.810;2022-10-16T05:10:35;99026.13;;;14.55;94.30
75594;BME280;64176;49.156;7.810;2022-10-16T05:13:21;99033.94;;;14.55;94.35
75594;BME280;64176;49.156;7.810;2022-10-16T05:16:07;99029.53;;;14.58;94.10
75594;BME280;64176;49.156;7.810;2022-10-16T05:18:51;99035.69;;;14.51;94.37
75594;BME280;64176;49.156;7.810;2022-10-16T05:21:36;99034.81;;;14.52;94.20
75594;BME280;64176;49.156;7.810;2022-10-16T05:24:20;99026.28;;;14.44;94.66
75594;BME280;64176;49.156;7.810;2022-10-16T05:27:04;99029.63;;;14.52;94.40
75594;BME280;64176;49.156;7.810;2022-10-16T05:29:49;99021.97;;;14.43;94.39
75594;BME280;64176;49.156;7.810;2022-10-16T05:32:33;99023.63;;;14.47;94.44
75594;BME280;64176;49.156;7.810;2022-10-16T05:35:18;99016.69;;;14.48;94.13
75594;BME280;64176;49.156;7.810;2022-10-16T05:38:02;99006.31;;;14.46;94.59
75594;BME280;64176;49.156;7.810;2022-10-16T05:40:52;99016.75;;;14.45;94.73
75594;BME280;64176;49.156;7.810;2022-10-16T05:43:36;99022.88;;;14.36;94.60
75594;BME280;64176;49.156;7.810;2022-10-16T05:46:20;99020.25;;;14.38;94.47
75594;BME280;64176;49.156;7.810;2022-10-16T05:49:07;99024.56;;;14.39;94.63
75594;BME280;64176;49.156;7.810;2022-10-16T05:51:51;99025.47;;;14.39;94.54
75594;BME280;64176;49.156;7.810;2022-10-16T05:54:35;99012.53;;;14.33;94.64
75594;BME280;64176;49.156;7.810;2022-10-16T05:57:19;99019.47;;;14.34;94.95
75594;BME280;64176;49.156;7.810;2022-10-16T06:00:03;99030.66;;;14.39;94.56
75594;BME280;64176;49.156;7.810;2022-10-16T06:02:56;99023.72;;;14.38;94.53
75594;BME280;64176;49.156;7.810;2022-10-16T06:05:40;99029.84;;;14.34;94.57
75594;BME280;64176;49.156;7.810;2022-10-16T06:08:26;99042.84;;;14.34;94.62
75594;BME280;64176;49.156;7.810;2022-10-16T06:11:16;99043.66;;;14.36;94.50
75594;BME280;64176;49.156;7.810;2022-10-16T06:14:01;99045.44;;;14.36;94.25
75594;BME280;64176;49.156;7.810;2022-10-16T06:16:50;99057.53;;;14.37;94.31
75594;BME280;64176;49.156;7.810;2022-10-16T06:19:34;99049.81;;;14.32;94.60
75594;BME280;64176;49.156;7.810;2022-10-16T06:22:18;99059.28;;;14.36;94.50
75594;BME280;64176;49.156;7.810;2022-10-16T06:25:02;99052.34;;;14.37;94.29
75594;BME280;64176;49.156;7.810;2022-10-16T06:27:48;99072.28;;;14.39;94.27
75594;BME280;64176;49.156;7.810;2022-10-16T06:30:32;99075.72;;;14.40;93.75
75594;BME280;64176;49.156;7.810;2022-10-16T06:33:16;99072.25;;;14.42;93.96
75594;BME280;64176;49.156;7.810;2022-10-16T06:36:06;99069.63;;;14.42;93.91
75594;BME280;64176;49.156;7.810;2022-10-16T06:38:53;99066.31;;;14.30;94.52
75594;BME280;64176;49.156;7.810;2022-10-16T06:41:37;99068.78;;;14.37;94.09
75594;BME280;64176;49.156;7.810;2022-10-16T06:44:32;99075.78;;;14.35;94.44
75594;BME280;64176;49.156;7.810;2022-10-16T06:47:16;99082.59;;;14.47;93.77
75594;BME280;64176;49.156;7.810;2022-10-16T06:50:01;99069.59;;;14.45;94.15
75594;BME280;64176;49.156;7.810;2022-10-16T06:52:45;99088.59;;;14.49;94.21
75594;BME280;64176;49.156;7.810;2022-10-16T06:55:29;99083.38;;;14.50;93.73
75594;BME280;64176;49.156;7.810;2022-10-16T06:58:12;99080.78;;;14.50;94.06
75594;BME280;64176;49.156;7.810;2022-10-16T07:00:56;99094.59;;;14.55;93.78
75594;BME280;64176;49.156;7.810;2022-10-16T07:03:42;99098.84;;;14.63;93.81
75594;BME280;64176;49.156;7.810;2022-10-16T07:06:30;99099.59;;;14.69;93.85
75594;BME280;64176;49.156;7.810;2022-10-16T07:09:15;99097.00;;;14.69;93.66
75594;BME280;64176;49.156;7.810;2022-10-16T07:12:01;99106.50;;;14.73;93.34
75594;BME280;64176;49.156;7.810;2022-10-16T07:14:45;99109.03;;;14.79;93.22
75594;BME280;64176;49.156;7.810;2022-10-16T07:17:29;99115.94;;;14.80;93.27
75594;BME280;64176;49.156;7.810;2022-10-16T07:20:13;99124.53;;;14.87;93.25
75594;BME280;64176;49.156;7.810;2022-10-16T07:22:57;99128.81;;;14.91;92.89
75594;BME280;64176;49.156;7.810;2022-10-16T07:25:41;99129.72;;;14.88;93.37
75594;BME280;64176;49.156;7.810;2022-10-16T07:28:25;99129.59;;;14.96;93.12
75594;BME280;64176;49.156;7.810;2022-10-16T07:31:12;99130.41;;;15.00;93.12
75594;BME280;64176;49.156;7.810;2022-10-16T07:34:00;99142.44;;;15.07;92.73
75594;BME280;64176;49.156;7.810;2022-10-16T07:36:47;99137.22;;;15.10;92.60
75594;BME280;64176;49.156;7.810;2022-10-16T07:39:32;99144.13;;;15.12;93.03
75594;BME280;64176;49.156;7.810;2022-10-16T07:42:15;99140.56;;;15.16;92.76
75594;BME280;64176;49.156;7.810;2022-10-16T07:44:59;99148.22;;;15.27;92.34
75594;BME280;64176;49.156;7.810;2022-10-16T07:47:43;99140.25;;;15.38;92.40
75594;BME280;64176;49.156;7.810;2022-10-16T07:50:27;99153.94;;;15.49;91.95
75594;BME280;64176;49.156;7.810;2022-10-16T07:53:12;99165.16;;;15.57;91.67
75594;BME280;64176;49.156;7.810;2022-10-16T07:56:01;99165.19;;;15.55;91.93
75594;BME280;64176;49.156;7.810;2022-10-16T07:58:45;99168.63;;;15.57;92.16
75594;BME280;64176;49.156;7.810;2022-10-16T08:01:30;99171.94;;;15.67;92.00
75594;BME280;64176;49.156;7.810;2022-10-16T08:04:16;99166.53;;;15.79;91.51
75594;BME280;64176;49.156;7.810;2022-10-16T08:07:00;99174.03;;;15.96;91.63
75594;BME280;64176;49.156;7.810;2022-10-16T08:09:44;99172.16;;;16.02;91.15
75594;BME280;64176;49.156;7.810;2022-10-16T08:12:28;99180.25;;;16.35;91.30
75594;BME280;64176;49.156;7.810;2022-10-16T08:15:18;99177.59;;;16.38;90.74
75594;BME280;64176;49.156;7.810;2022-10-16T08:18:05;99183.50;;;16.48;90.15
75594;BME280;64176;49.156;7.810;2022-10-16T08:20:56;99188.50;;;16.58;90.00
75594;BME280;64176;49.156;7.810;2022-10-16T08:23:40;99198.06;;;16.58;88.50
75594;BME280;64176;49.156;7.810;2022-10-16T08:26:26;99204.09;;;16.61;89.03
75594;BME280;64176;49.156;7.810;2022-10-16T08:29:10;99201.50;;;16.61;89.02
75594;BME280;64176;49.156;7.810;2022-10-16T08:31:53;99215.22;;;16.72;88.84
75594;BME280;64176;49.156;7.810;2022-10-16T08:34:37;99215.28;;;16.69;89.74
75594;BME280;64176;49.156;7.810;2022-10-16T08:37:29;99223.09;;;16.69;90.26
75594;BME280;64176;49.156;7.810;2022-10-16T08:46:30;99224.59;;;16.83;88.48
75594;BME280;64176;49.156;7.810;2022-10-16T08:49:16;99218.53;;;16.81;87.76
75594;BME280;64176;49.156;7.810;2022-10-16T08:52:00;99213.91;;;16.93;88.88
75594;BME280;64176;49.156;7.810;2022-10-16T08:54:48;99226.53;;;17.15;89.21
75594;BME280;64176;49.156;7.810;2022-10-16T08:57:34;99233.16;;;17.29;88.68
75594;BME280;64176;49.156;7.810;2022-10-16T09:00:18;99229.38;;;17.44;87.25
75594;BME280;64176;49.156;7.810;2022-10-16T09:15:24;99249.03;;;18.31;83.40
75594;BME280;64176;49.156;7.810;2022-10-16T09:19:03;99253.47;;;18.29;81.28
75594;BME280;64176;49.156;7.810;2022-10-16T09:21:30;99251.78;;;18.27;79.59
75594;BME280;64176;49.156;7.810;2022-10-16T09:24:21;99260.78;;;18.15;79.89
75594;BME280;64176;49.156;7.810;2022-10-16T09:27:15;99260.41;;;18.30;80.04
75594;BME280;64176;49.156;7.810;2022-10-16T09:29:59;99267.97;;;18.41;79.06
75594;BME280;64176;49.156;7.810;2022-10-16T09:32:46;99266.75;;;18.54;76.45
75594;BME280;64176;49.156;7.810;2022-10-16T09:35:43;99270.63;;;18.39;76.46
75594;BME280;64176;49.156;7.810;2022-10-16T09:38:33;99275.91;;;18.38;77.55
75594;BME280;64176;49.156;7.810;2022-10-16T09:41:20;99275.13;;;18.34;76.77
75594;BME280;64176;49.156;7.810;2022-10-16T09:44:25;99281.28;;;18.33;77.15
75594;BME280;64176;49.156;7.810;2022-10-16T09:49:59;99268.16;;;18.67;77.15
75594;BME280;64176;49.156;7.810;2022-10-16T09:52:46;99260.97;;;18.75;76.41
75594;BME280;64176;49.156;7.810;2022-10-16T09:55:30;99265.47;;;18.70;75.89
75594;BME280;64176;49.156;7.810;2022-10-16T09:58:14;99268.69;;;18.80;75.62
75594;BME280;64176;49.156;7.810;2022-10-16T10:01:00;99257.56;;;19.03;74.88
75594;BME280;64176;49.156;7.810;2022-10-16T10:03:44;99254.50;;;19.18;74.08
75594;BME280;64176;49.156;7.810;2022-10-16T10:06:35;99272.97;;;19.13;74.15
75594;BME280;64176;49.156;7.810;2022-10-16T10:09:27;99275.88;;;19.04;74.57
75594;BME280;64176;49.156;7.810;2022-10-16T10:12:19;99268.81;;;19.36;73.38
75594;BME280;64176;49.156;7.810;2022-10-16T10:15:07;99272.19;;;19.41;72.90
75594;BME280;64176;49.156;7.810;2022-10-16T10:17:53;99271.56;;;19.33;73.56
75594;BME280;64176;49.156;7.810;2022-10-16T10:20:37;99275.13;;;19.30;73.67
75594;BME280;64176;49.156;7.810;2022-10-16T10:23:24;99288.25;;;19.28;74.79
75594;BME280;64176;49.156;7.810;2022-10-16T10:26:17;99273.44;;;19.27;73.32
75594;BME280;64176;49.156;7.810;2022-10-16T10:29:15;99283.59;;;19.38;74.22
75594;BME280;64176;49.156;7.810;2022-10-16T10:35:41;99292.53;;;19.62;73.29
75594;BME280;64176;49.156;7.810;2022-10-16T10:48:29;99289.50;;;19.76;73.60
75594;BME280;64176;49.156;7.810;2022-10-16T10:51:34;99299.91;;;19.48;74.20
75594;BME280;64176;49.156;7.810;2022-10-16T11:06:57;99297.19;;;19.52;74.52
75594;BME280;64176;49.156;7.810;2022-10-16T11:09:53;99298.06;;;19.53;74.57
75594;BME280;64176;49.156;7.810;2022-10-16T11:12:42;99287.66;;;19.50;74.79
75594;BME280;64176;49.156;7.810;2022-10-16T11:15:35;99290.25;;;19.51;73.87
75594;BME280;64176;49.156;7.810;2022-10-16T11:18:38;99285.06;;;19.48;73.38
75594;BME280;64176;49.156;7.810;2022-10-16T11:21:24;99283.94;;;19.57;72.99
75594;BME280;64176;49.156;7.810;2022-10-16T11:24:19;99285.66;;;19.58;73.92
75594;BME280;64176;49.156;7.810;2022-10-16T11:27:08;99284.13;;;19.51;73.87
75594;BME280;64176;49.156;7.810;2022-10-16T11:29:58;99283.03;;;19.58;73.86
75594;BME280;64176;49.156;7.810;2022-10-16T11:35:41;99281.34;;;19.55;72.71
75594;BME280;64176;49.156;7.810;2022-10-16T11:44:38;99277.13;;;19.51;73.55
75594;BME280;64176;49.156;7.810;2022-10-16T11:47:36;99278.94;;;19.48;72.61
75594;BME280;64176;49.156;7.810;2022-10-16T11:50:46;99278.09;;;19.47;73.62
75594;BME280;64176;49.156;7.810;2022-10-16T11:53:49;99271.72;;;19.56;73.17
75594;BME280;64176;49.156;7.810;2022-10-16T11:56:38;99252.50;;;19.55;72.36
75594;BME280;64176;49.156;7.810;2022-10-16T11:59:57;99256.81;;;19.58;72.29
75594;BME280;64176;49.156;7.810;2022-10-16T12:08:38;99250.75;;;19.56;73.48
75594;BME280;64176;49.156;7.810;2022-10-16T12:16:56;99254.13;;;19.32;74.32
75594;BME280;64176;49.156;7.810;2022-10-16T12:19:41;99274.41;;;19.23;75.47
75594;BME280;64176;49.156;7.810;2022-10-16T12:22:28;99269.22;;;19.22;75.89
75594;BME280;64176;49.156;7.810;2022-10-16T12:25:39;99276.38;;;19.17;74.39
75594;BME280;64176;49.156;7.810;2022-10-16T12:28:32;99263.09;;;19.23;73.11
75594;BME280;64176;49.156;7.810;2022-10-16T12:31:17;99266.53;;;19.25;74.26
75594;BME280;64176;49.156;7.810;2022-10-16T12:34:03;99268.41;;;19.21;76.05
75594;BME280;64176;49.156;7.810;2022-10-16T12:36:48;99266.78;;;19.16;74.82
75594;BME280;64176;49.156;7.810;2022-10-16T12:39:33;99276.50;;;19.12;73.87
75594;BME280;64176;49.156;7.810;2022-10-16T12:48:21;99292.53;;;19.02;74.25
75594;BME280;64176;49.156;7.810;2022-10-16T12:54:19;99281.66;;;18.84;75.73
75594;BME280;64176;49.156;7.810;2022-10-16T13:00:26;99291.50;;;18.76;77.10
75594;BME280;64176;49.156;7.810;2022-10-16T13:06:27;99265.34;;;18.75;76.99
75594;BME280;64176;49.156;7.810;2022-10-16T13:12:37;99265.28;;;18.44;82.62
75594;BME280;64176;49.156;7.810;2022-10-16T13:18:59;99276.41;;;18.52;82.80
75594;BME280;64176;49.156;7.810;2022-10-16T13:25:18;99279.00;;;18.53;82.80
75594;BME280;64176;49.156;7.810;2022-10-16T13:28:10;99277.66;;;18.37;83.67
75594;BME280;64176;49.156;7.810;2022-10-16T13:30:58;99288.28;;;18.31;84.62
75594;BME280;64176;49.156;7.810;2022-10-16T13:33:46;99276.94;;;18.32;84.46
75594;BME280;64176;49.156;7.810;2022-10-16T13:36:43;99260.56;;;18.24;85.30
75594;BME280;64176;49.156;7.810;2022-10-16T13:39:29;99260.59;;;18.23;85.21
75594;BME280;64176;49.156;7.810;2022-10-16T13:45:18;99264.47;;;18.08;85.37
75594;BME280;64176;49.156;7.810;2022-10-16T13:48:08;99271.19;;;18.18;85.37
75594;BME280;64176;49.156;7.810;2022-10-16T13:51:17;99280.63;;;18.24;84.71
75594;BME280;64176;49.156;7.810;2022-10-16T13:54:01;99273.00;;;18.14;85.46
75594;BME280;64176;49.156;7.810;2022-10-16T13:56:45;99277.25;;;18.20;85.38
75594;BME280;64176;49.156;7.810;2022-10-16T13:59:36;99286.56;;;18.30;85.04
75594;BME280;64176;49.156;7.810;2022-10-16T14:02:32;99289.94;;;18.34;84.79
75594;BME280;64176;49.156;7.810;2022-10-16T14:05:18;99291.59;;;18.38;83.85
75594;BME280;64176;49.156;7.810;2022-10-16T14:08:02;99298.28;;;18.49;82.33
75594;BME280;64176;49.156;7.810;2022-10-16T14:10:51;99291.00;;;18.62;81.16
75594;BME280;64176;49.156;7.810;2022-10-16T14:13:38;99294.31;;;18.69;79.91
75594;BME280;64176;49.156;7.810;2022-10-16T14:16:29;99287.81;;;18.83;79.11
75594;BME280;64176;49.156;7.810;2022-10-16T14:19:25;99293.88;;;18.85;79.74
75594;BME280;64176;49.156;7.810;2022-10-16T14:22:33;99285.75;;;18.95;79.21
75594;BME280;64176;49.156;7.810;2022-10-16T14:28:20;99285.53;;;19.02;76.86
75594;BME280;64176;49.156;7.810;2022-10-16T14:37:28;99290.66;;;19.07;76.89
75594;BME280;64176;49.156;7.810;2022-10-16T14:40:16;99287.09;;;19.09;76.35
75594;BME280;64176;49.156;7.810;2022-10-16T14:43:04;99290.56;;;19.10;76.40
75594;BME280;64176;49.156;7.810;2022-10-16T14:45:54;99297.53;;;19.11;76.31
75594;BME280;64176;49.156;7.810;2022-10-16T14:48:44;99270.41;;;19.12;75.95
75594;BME280;64176;49.156;7.810;2022-10-16T14:51:30;99279.19;;;19.11;75.81
75594;BME280;64176;49.156;7.810;2022-10-16T14:54:16;99280.00;;;19.11;75.98
75594;BME280;64176;49.156;7.810;2022-10-16T14:57:03;99281.00;;;19.09;77.24
75594;BME280;64176;49.156;7.810;2022-10-16T14:59:50;99279.28;;;19.08;78.92
75594;BME280;64176;49.156;7.810;2022-10-16T15:02:37;99276.72;;;19.05;79.89
75594;BME280;64176;49.156;7.810;2022-10-16T15:05:26;99284.59;;;19.05;80.55
75594;BME280;64176;49.156;7.810;2022-10-16T15:08:10;99283.88;;;19.00;81.20
75594;BME280;64176;49.156;7.810;2022-10-16T15:10:56;99286.38;;;19.03;80.85
75594;BME280;64176;49.156;7.810;2022-10-16T15:13:40;99286.19;;;19.10;81.10
75594;BME280;64176;49.156;7.810;2022-10-16T15:16:25;99270.94;;;18.94;83.14
75594;BME280;64176;49.156;7.810;2022-10-16T15:19:09;99281.25;;;19.00;83.34
75594;BME280;64176;49.156;7.810;2022-10-16T15:21:53;99281.88;;;19.08;83.16
75594;BME280;64176;49.156;7.810;2022-10-16T15:24:37;99289.00;;;19.03;82.28
75594;BME280;64176;49.156;7.810;2022-10-16T15:27:21;99284.81;;;18.97;80.27
75594;BME280;64176;49.156;7.810;2022-10-16T15:30:06;99289.31;;;18.92;80.08
75594;BME280;64176;49.156;7.810;2022-10-16T15:32:53;99287.25;;;18.72;82.17
75594;BME280;64176;49.156;7.810;2022-10-16T15:35:37;99285.13;;;18.52;83.50
75594;BME280;64176;49.156;7.810;2022-10-16T15:38:22;99295.91;;;18.40;83.70
75594;BME280;64176;49.156;7.810;2022-10-16T15:41:06;99288.25;;;18.33;83.30
75594;BME280;64176;49.156;7.810;2022-10-16T15:43:50;99290.13;;;18.28;84.61
75594;BME280;64176;49.156;7.810;2022-10-16T15:46:35;99287.72;;;18.20;85.41
75594;BME280;64176;49.156;7.810;2022-10-16T15:49:20;99280.81;;;18.16;85.10
75594;BME280;64176;49.156;7.810;2022-10-16T15:52:03;99292.38;;;18.07;85.38
75594;BME280;64176;49.156;7.810;2022-10-16T15:54:48;99293.16;;;18.11;85.84
75594;BME280;64176;49.156;7.810;2022-10-16T15:57:34;99290.59;;;18.09;85.41
75594;BME280;64176;49.156;7.810;2022-10-16T16:00:22;99277.97;;;17.90;85.48
75594;BME280;64176;49.156;7.810;2022-10-16T16:03:06;99286.00;;;17.82;85.72
75594;BME280;64176;49.156;7.810;2022-10-16T16:05:50;99281.03;;;17.71;86.04
75594;BME280;64176;49.156;7.810;2022-10-16T16:08:35;99290.88;;;17.57;87.15
75594;BME280;64176;49.156;7.810;2022-10-16T16:11:22;99279.72;;;17.51;87.28
75594;BME280;64176;49.156;7.810;2022-10-16T16:14:12;99288.59;;;17.43;87.21
75594;BME280;64176;49.156;7.810;2022-10-16T16:16:57;99292.34;;;17.32;87.42
75594;BME280;64176;49.156;7.810;2022-10-16T16:19:41;99294.94;;;17.32;87.50
75594;BME280;64176;49.156;7.810;2022-10-16T16:22:25;99298.66;;;17.20;87.67
75594;BME280;64176;49.156;7.810;2022-10-16T16:25:10;99279.63;;;17.15;88.59
75594;BME280;64176;49.156;7.810;2022-10-16T16:27:54;99284.00;;;17.13;88.27
75594;BME280;64176;49.156;7.810;2022-10-16T16:30:38;99288.63;;;17.00;88.42
75594;BME280;64176;49.156;7.810;2022-10-16T16:33:22;99293.03;;;16.98;88.68
75594;BME280;64176;49.156;7.810;2022-10-16T16:36:06;99286.47;;;16.78;89.34
75594;BME280;64176;49.156;7.810;2022-10-16T16:38:53;99289.28;;;16.67;89.27
75594;BME280;64176;49.156;7.810;2022-10-16T16:41:37;99297.97;;;16.67;88.93